Time,TemperatureF,DewpointF,PressureIn,WindDirection,WindDirectionDegrees,WindSpeedMPH,WindSpeedGustMPH,Humidity,HourlyPrecipIn,Conditions,Clouds,dailyrainin,SoftwareType,DateUTC
2013-07-06 00:00:00,76.0,70.0,30.18,SSW,207,7.0,11.0,84,0.00,,,-99.99,,2013-07-06 04:00:00,
2013-07-06 00:43:00,76.0,70.0,30.18,SSW,207,7.0,11.0,84,0.00,,,-99.99,,2013-07-06 04:43:00,
2013-07-06 00:53:00,76.0,70.0,30.18,SSW,207,7.0,11.0,84,0.00,,,-99.99,,2013-07-06 04:53:00,
2013-07-06 01:00:00,75.0,71.0,30.18,SSW,194,9.0,11.0,87,0.00,,,-99.99,,2013-07-06 05:00:00,
2013-07-06 01:34:00,75.0,71.0,30.18,SSW,194,9.0,11.0,87,0.00,,,-99.99,,2013-07-06 05:34:00,
2013-07-06 01:43:00,75.0,71.0,30.18,SSW,194,9.0,11.0,87,0.00,,,-99.99,,2013-07-06 05:43:00,
2013-07-06 01:53:00,75.0,71.0,30.18,SSW,194,9.0,11.0,87,0.00,,,-99.99,,2013-07-06 05:53:00,
2013-07-06 02:00:00,75.0,71.0,30.18,SW,230,5.0,8.0,88,0.00,,,-99.99,,2013-07-06 06:00:00,
2013-07-06 02:34:00,75.0,71.0,30.18,SW,230,5.0,8.0,88,0.00,,,-99.99,,2013-07-06 06:34:00,
2013-07-06 02:43:00,75.0,71.0,30.18,SW,230,5.0,8.0,88,0.00,,,-99.99,,2013-07-06 06:43:00,
2013-07-06 02:53:00,75.0,71.0,30.18,SW,230,5.0,8.0,88,0.00,,,-99.99,,2013-07-06 06:53:00,
2013-07-06 03:00:00,74.0,70.0,30.18,SSW,193,4.0,7.0,90,0.00,,,-99.99,,2013-07-06 07:00:00,
2013-07-06 03:33:00,74.0,70.0,30.18,SSW,193,4.0,7.0,90,0.00,,,-99.99,,2013-07-06 07:33:00,
2013-07-06 03:44:00,74.0,70.0,30.18,SSW,193,4.0,7.0,90,0.00,,,-99.99,,2013-07-06 07:44:00,
2013-07-06 03:52:00,74.0,70.0,30.18,SSW,193,4.0,7.0,90,0.00,,,-99.99,,2013-07-06 07:52:00,
2013-07-06 04:00:00,73.0,70.0,30.15,South,189,3.0,5.0,91,0.00,,,-99.99,,2013-07-06 08:00:00,
2013-07-06 04:34:00,73.0,70.0,30.15,South,189,3.0,5.0,91,0.00,,,-99.99,,2013-07-06 08:34:00,
2013-07-06 04:43:00,73.0,70.0,30.15,South,189,3.0,5.0,91,0.00,,,-99.99,,2013-07-06 08:43:00,
2013-07-06 04:54:00,73.0,70.0,30.15,South,189,3.0,5.0,91,0.00,,,-99.99,,2013-07-06 08:54:00,
2013-07-06 05:00:00,72.0,70.0,30.15,South,183,3.0,4.0,92,0.00,,,-99.99,,2013-07-06 09:00:00,
2013-07-06 05:34:00,72.0,70.0,30.15,South,183,3.0,4.0,92,0.00,,,-99.99,,2013-07-06 09:34:00,
2013-07-06 05:43:00,72.0,70.0,30.15,South,183,3.0,4.0,92,0.00,,,-99.99,,2013-07-06 09:43:00,
2013-07-06 05:53:00,72.0,70.0,30.15,South,183,3.0,4.0,92,0.00,,,-99.99,,2013-07-06 09:53:00,
2013-07-06 06:00:00,72.0,70.0,30.18,SSE,165,2.0,4.0,93,0.00,,,-99.99,,2013-07-06 10:00:00,
2013-07-06 06:33:00,72.0,70.0,30.18,SSE,165,2.0,4.0,93,0.00,,,-99.99,,2013-07-06 10:33:00,
2013-07-06 06:43:00,72.0,70.0,30.18,SSE,165,2.0,4.0,93,0.00,,,-99.99,,2013-07-06 10:43:00,
2013-07-06 06:53:00,72.0,70.0,30.18,SSE,165,2.0,4.0,93,0.00,,,-99.99,,2013-07-06 10:53:00,
2013-07-06 07:00:00,76.0,72.0,30.18,SW,222,4.0,8.0,88,0.00,,,-99.99,,2013-07-06 11:00:00,
2013-07-06 07:33:00,76.0,72.0,30.18,SW,222,4.0,8.0,88,0.00,,,-99.99,,2013-07-06 11:33:00,
2013-07-06 07:43:00,76.0,72.0,30.18,SW,222,4.0,8.0,88,0.00,,,-99.99,,2013-07-06 11:43:00,
2013-07-06 07:53:00,76.0,72.0,30.18,SW,222,4.0,8.0,88,0.00,,,-99.99,,2013-07-06 11:53:00,
2013-07-06 08:00:00,80.0,73.0,30.18,WSW,246,10.0,13.0,78,0.00,,,-99.99,,2013-07-06 12:00:00,
2013-07-06 08:33:00,80.0,73.0,30.18,WSW,246,10.0,13.0,78,0.00,,,-99.99,,2013-07-06 12:33:00,
2013-07-06 08:43:00,80.0,73.0,30.18,WSW,246,10.0,13.0,78,0.00,,,-99.99,,2013-07-06 12:43:00,
2013-07-06 08:52:00,80.0,73.0,30.18,WSW,246,10.0,13.0,78,0.00,,,-99.99,,2013-07-06 12:52:00,
2013-07-06 09:00:00,83.0,73.0,30.18,SW,230,3.0,15.0,72,0.00,,,-99.99,,2013-07-06 13:00:00,
2013-07-06 09:33:00,83.0,73.0,30.18,SW,230,3.0,15.0,72,0.00,,,-99.99,,2013-07-06 13:33:00,
2013-07-06 09:43:00,83.0,73.0,30.18,SW,230,3.0,15.0,72,0.00,,,-99.99,,2013-07-06 13:43:00,
2013-07-06 09:52:00,83.0,73.0,30.18,SW,230,3.0,15.0,72,0.00,,,-99.99,,2013-07-06 13:52:00,
2013-07-06 10:00:00,86.0,72.0,30.15,West,266,10.0,16.0,63,0.00,,,-99.99,,2013-07-06 14:00:00,
2013-07-06 10:34:00,86.0,72.0,30.15,West,266,10.0,16.0,63,0.00,,,-99.99,,2013-07-06 14:34:00,
2013-07-06 10:43:00,86.0,72.0,30.15,West,266,10.0,16.0,63,0.00,,,-99.99,,2013-07-06 14:43:00,
2013-07-06 10:53:00,86.0,72.0,30.15,West,266,10.0,16.0,63,0.00,,,-99.99,,2013-07-06 14:53:00,
2013-07-06 11:34:00,88.0,71.0,30.15,SW,219,8.0,14.0,57,0.00,,,-99.99,,2013-07-06 15:34:00,
2013-07-06 11:43:00,88.0,71.0,30.15,SW,219,8.0,14.0,57,0.00,,,-99.99,,2013-07-06 15:43:00,
2013-07-06 11:53:00,88.0,71.0,30.15,SW,219,8.0,14.0,57,0.00,,,-99.99,,2013-07-06 15:53:00,
2013-07-06 12:00:00,89.0,71.0,30.12,WSW,241,9.0,16.0,56,0.00,,,-99.99,,2013-07-06 16:00:00,
2013-07-06 12:50:00,89.0,71.0,30.12,WSW,241,9.0,16.0,56,0.00,,,-99.99,,2013-07-06 16:50:00,
2013-07-06 13:00:00,90.0,71.0,30.12,WNW,295,7.0,15.0,53,0.00,,,-99.99,,2013-07-06 17:00:00,
2013-07-06 14:00:00,93.0,70.0,30.09,WSW,256,8.0,16.0,48,0.00,,,-99.99,,2013-07-06 18:00:00,
2013-07-06 15:00:00,92.0,71.0,30.09,WSW,242,10.0,16.0,49,0.00,,,-99.99,,2013-07-06 19:00:00,
2013-07-06 16:00:00,93.0,68.0,30.09,West,259,9.0,18.0,45,0.00,,,-99.99,,2013-07-06 20:00:00,
2013-07-06 17:00:00,92.0,68.0,30.06,WSW,256,9.0,16.0,46,0.00,,,-99.99,,2013-07-06 21:00:00,
2013-07-06 18:00:00,92.0,68.0,30.06,SW,218,8.0,17.0,45,0.00,,,-99.99,,2013-07-06 22:00:00,
2013-07-06 18:50:00,92.0,68.0,30.06,SW,218,8.0,17.0,45,0.00,,,-99.99,,2013-07-06 22:50:00,
2013-07-06 19:00:00,90.0,70.0,30.03,SW,229,6.0,13.0,51,0.00,,,-99.99,,2013-07-06 23:00:00,
2013-07-06 20:00:00,86.0,72.0,30.06,SW,223,4.0,10.0,64,0.00,,,-99.99,,2013-07-07 00:00:00,
2013-07-06 20:50:00,86.0,72.0,30.06,SW,223,4.0,10.0,64,0.00,,,-99.99,,2013-07-07 00:50:00,
2013-07-06 21:00:00,81.0,72.0,30.06,SW,220,4.0,6.0,74,0.00,,,-99.99,,2013-07-07 01:00:00,
2013-07-06 22:00:00,79.0,71.0,30.09,SSW,210,4.0,6.0,76,0.00,,,-99.99,,2013-07-07 02:00:00,
2013-07-06 22:44:00,79.0,71.0,30.09,SSW,210,4.0,6.0,76,0.00,,,-99.99,,2013-07-07 02:44:00,
2013-07-06 22:55:00,79.0,71.0,30.09,SSW,210,4.0,6.0,76,0.00,,,-99.99,,2013-07-07 02:55:00,
2013-07-06 23:00:00,78.0,72.0,30.09,SSW,204,4.0,7.0,80,0.00,,,-99.99,,2013-07-07 03:00:00,
2013-07-06 23:44:00,78.0,72.0,30.09,SSW,204,4.0,7.0,80,0.00,,,-99.99,,2013-07-07 03:44:00,
2013-07-06 23:57:00,78.0,72.0,30.09,SSW,204,4.0,7.0,80,0.00,,,-99.99,,2013-07-07 03:57:00,